sensor_id;sensor_type;location;lat;lon;timestamp;temperature;humidity
48208;DHT22;33997;53.278;9.708;2023-03-11T00:02:10;-3276.70;99.90
48208;DHT22;33997;53.278;9.708;2023-03-11T00:04:35;-3276.70;99.90
48208;DHT22;33997;53.278;9.708;2023-03-11T00:07:01;-3276.70;99.90
48208;DHT22;33997;53.278;9.708;2023-03-11T00:09:29;-3276.70;99.90
48208;DHT22;33997;53.278;9.708;2023-03-11T00:11:55;-3276.70;99.90
48208;DHT22;33997;53.278;9.708;2023-03-11T00:14:20;-3276.70;99.90
48208;DHT22;33997;53.278;9.708;2023-03-11T00:16:45;-3276.70;99.90
48208;DHT22;33997;53.278;9.708;2023-03-11T00:19:11;-3276.70;99.90
48208;DHT22;33997;53.278;9.708;2023-03-11T00:21:36;-3276.70;99.90
48208;DHT22;33997;53.278;9.708;2023-03-11T00:24:02;-3276.70;99.90
48208;DHT22;33997;53.278;9.708;2023-03-11T00:26:28;0.00;99.80
48208;DHT22;33997;53.278;9.708;2023-03-11T00:28:54;0.00;99.90
48208;DHT22;33997;53.278;9.708;2023-03-11T00:31:20;0.00;99.90
48208;DHT22;33997;53.278;9.708;2023-03-11T00:33:46;0.00;99.90
48208;DHT22;33997;53.278;9.708;2023-03-11T00:36:28;0.00;99.90
48208;DHT22;33997;53.278;9.708;2023-03-11T00:38:56;0.00;99.90
48208;DHT22;33997;53.278;9.708;2023-03-11T00:41:21;0.00;99.90
48208;DHT22;33997;53.278;9.708;2023-03-11T00:43:47;0.00;99.90
48208;DHT22;33997;53.278;9.708;2023-03-11T00:46:12;0.00;99.90
48208;DHT22;33997;53.278;9.708;2023-03-11T00:48:38;0.00;99.90
48208;DHT22;33997;53.278;9.708;2023-03-11T00:51:06;0.00;99.90
48208;DHT22;33997;53.278;9.708;2023-03-11T00:53:31;0.00;99.90
48208;DHT22;33997;53.278;9.708;2023-03-11T00:55:57;0.00;99.90
48208;DHT22;33997;53.278;9.708;2023-03-11T00:58:22;0.00;99.90
48208;DHT22;33997;53.278;9.708;2023-03-11T01:00:52;0.00;99.90
48208;DHT22;33997;53.278;9.708;2023-03-11T01:03:17;0.00;99.90
48208;DHT22;33997;53.278;9.708;2023-03-11T01:05:43;0.00;99.90
48208;DHT22;33997;53.278;9.708;2023-03-11T01:08:09;0.00;99.90
48208;DHT22;33997;53.278;9.708;2023-03-11T01:10:34;0.00;99.80
48208;DHT22;33997;53.278;9.708;2023-03-11T01:13:00;0.00;99.80
48208;DHT22;33997;53.278;9.708;2023-03-11T01:15:29;-3276.70;99.80
48208;DHT22;33997;53.278;9.708;2023-03-11T01:17:55;0.00;99.80
48208;DHT22;33997;53.278;9.708;2023-03-11T01:20:21;0.00;99.80
48208;DHT22;33997;53.278;9.708;2023-03-11T01:22:46;-3276.70;99.70
48208;DHT22;33997;53.278;9.708;2023-03-11T01:25:14;0.00;99.70
48208;DHT22;33997;53.278;9.708;2023-03-11T01:27:40;0.00;99.70
48208;DHT22;33997;53.278;9.708;2023-03-11T01:30:06;-3276.70;99.60
48208;DHT22;33997;53.278;9.708;2023-03-11T01:32:32;-3276.70;99.50
48208;DHT22;33997;53.278;9.708;2023-03-11T01:34:58;-3276.70;99.50
48208;DHT22;33997;53.278;9.708;2023-03-11T01:37:23;-3276.60;99.40
48208;DHT22;33997;53.278;9.708;2023-03-11T01:39:49;-3276.60;99.50
48208;DHT22;33997;53.278;9.708;2023-03-11T01:42:14;-3276.60;99.50
48208;DHT22;33997;53.278;9.708;2023-03-11T01:44:40;-3276.50;99.50
48208;DHT22;33997;53.278;9.708;2023-03-11T01:49:37;-3276.50;99.40
48208;DHT22;33997;53.278;9.708;2023-03-11T01:52:06;-3276.40;99.30
48208;DHT22;33997;53.278;9.708;2023-03-11T01:54:35;-3276.40;99.40
48208;DHT22;33997;53.278;9.708;2023-03-11T01:57:04;-3276.50;99.40
48208;DHT22;33997;53.278;9.708;2023-03-11T01:59:44;-3276.50;99.40
48208;DHT22;33997;53.278;9.708;2023-03-11T02:02:22;-3276.50;99.30
48208;DHT22;33997;53.278;9.708;2023-03-11T02:04:50;-3276.50;99.20
48208;DHT22;33997;53.278;9.708;2023-03-11T02:07:16;-3276.50;99.20
48208;DHT22;33997;53.278;9.708;2023-03-11T02:09:41;-3276.50;99.20
48208;DHT22;33997;53.278;9.708;2023-03-11T02:12:09;-3276.40;99.10
48208;DHT22;33997;53.278;9.708;2023-03-11T02:14:37;-3276.40;99.20
48208;DHT22;33997;53.278;9.708;2023-03-11T02:17:04;-3276.50;99.20
48208;DHT22;33997;53.278;9.708;2023-03-11T02:19:37;-3276.50;99.30
48208;DHT22;33997;53.278;9.708;2023-03-11T02:22:06;-3276.50;99.30
48208;DHT22;33997;53.278;9.708;2023-03-11T02:25:04;-3276.50;99.20
48208;DHT22;33997;53.278;9.708;2023-03-11T02:27:36;-3276.50;99.30
48208;DHT22;33997;53.278;9.708;2023-03-11T02:30:04;-3276.50;99.20
48208;DHT22;33997;53.278;9.708;2023-03-11T02:32:30;-3276.50;99.20
48208;DHT22;33997;53.278;9.708;2023-03-11T02:34:56;-3276.60;99.20
48208;DHT22;33997;53.278;9.708;2023-03-11T02:37:21;-3276.50;99.20
48208;DHT22;33997;53.278;9.708;2023-03-11T02:39:49;-3276.50;99.20
48208;DHT22;33997;53.278;9.708;2023-03-11T02:42:24;-3276.50;99.20
48208;DHT22;33997;53.278;9.708;2023-03-11T02:45:05;-3276.50;99.20
48208;DHT22;33997;53.278;9.708;2023-03-11T02:47:32;-3276.50;99.20
48208;DHT22;33997;53.278;9.708;2023-03-11T02:49:59;-3276.50;99.20
48208;DHT22;33997;53.278;9.708;2023-03-11T02:52:26;-3276.60;99.20
48208;DHT22;33997;53.278;9.708;2023-03-11T02:54:52;-3276.50;99.20
48208;DHT22;33997;53.278;9.708;2023-03-11T02:57:18;-3276.60;99.20
48208;DHT22;33997;53.278;9.708;2023-03-11T02:59:43;-3276.50;99.10
48208;DHT22;33997;53.278;9.708;2023-03-11T03:02:08;-3276.60;99.10
48208;DHT22;33997;53.278;9.708;2023-03-11T03:04:34;-3276.60;99.20
48208;DHT22;33997;53.278;9.708;2023-03-11T03:06:59;-3276.60;99.20
48208;DHT22;33997;53.278;9.708;2023-03-11T03:09:25;-3276.60;99.20
48208;DHT22;33997;53.278;9.708;2023-03-11T03:11:50;-3276.60;99.10
48208;DHT22;33997;53.278;9.708;2023-03-11T03:14:16;-3276.60;99.10
48208;DHT22;33997;53.278;9.708;2023-03-11T03:16:41;-3276.60;99.10
48208;DHT22;33997;53.278;9.708;2023-03-11T03:19:07;-3276.60;99.10
48208;DHT22;33997;53.278;9.708;2023-03-11T03:21:32;-3276.50;99.00
48208;DHT22;33997;53.278;9.708;2023-03-11T03:23:58;-3276.60;99.10
48208;DHT22;33997;53.278;9.708;2023-03-11T03:26:23;-3276.60;99.00
48208;DHT22;33997;53.278;9.708;2023-03-11T03:28:49;-3276.50;99.00
48208;DHT22;33997;53.278;9.708;2023-03-11T03:31:14;-3276.50;98.90
48208;DHT22;33997;53.278;9.708;2023-03-11T03:33:40;-3276.50;99.00
48208;DHT22;33997;53.278;9.708;2023-03-11T03:36:07;-3276.50;98.90
48208;DHT22;33997;53.278;9.708;2023-03-11T03:38:33;-3276.40;99.00
48208;DHT22;33997;53.278;9.708;2023-03-11T03:40:59;-3276.50;99.00
48208;DHT22;33997;53.278;9.708;2023-03-11T03:43:24;-3276.50;98.90
48208;DHT22;33997;53.278;9.708;2023-03-11T03:46:01;-3276.40;98.90
48208;DHT22;33997;53.278;9.708;2023-03-11T03:48:27;-3276.40;98.90
48208;DHT22;33997;53.278;9.708;2023-03-11T03:50:53;-3276.50;98.90
48208;DHT22;33997;53.278;9.708;2023-03-11T03:53:18;-3276.50;98.90
48208;DHT22;33997;53.278;9.708;2023-03-11T03:55:44;-3276.40;98.90
48208;DHT22;33997;53.278;9.708;2023-03-11T03:58:09;-3276.40;98.80
48208;DHT22;33997;53.278;9.708;2023-03-11T04:00:35;-3276.30;98.80
48208;DHT22;33997;53.278;9.708;2023-03-11T04:03:00;-3276.30;98.80
48208;DHT22;33997;53.278;9.708;2023-03-11T04:05:26;-3276.20;98.80
48208;DHT22;33997;53.278;9.708;2023-03-11T04:07:53;-3276.30;98.90
48208;DHT22;33997;53.278;9.708;2023-03-11T04:10:19;-3276.30;98.90
48208;DHT22;33997;53.278;9.708;2023-03-11T04:12:44;-3276.30;98.90
48208;DHT22;33997;53.278;9.708;2023-03-11T04:15:10;-3276.30;98.90
48208;DHT22;33997;53.278;9.708;2023-03-11T04:17:36;-3276.30;98.90
48208;DHT22;33997;53.278;9.708;2023-03-11T04:20:01;-3276.30;98.90
48208;DHT22;33997;53.278;9.708;2023-03-11T04:22:27;-3276.30;98.80
48208;DHT22;33997;53.278;9.708;2023-03-11T04:24:52;-3276.20;98.70
48208;DHT22;33997;53.278;9.708;2023-03-11T04:27:18;-3276.30;98.70
48208;DHT22;33997;53.278;9.708;2023-03-11T04:29:43;-3276.20;98.60
48208;DHT22;33997;53.278;9.708;2023-03-11T04:32:09;-3276.20;98.60
48208;DHT22;33997;53.278;9.708;2023-03-11T04:34:34;-3276.10;98.60
48208;DHT22;33997;53.278;9.708;2023-03-11T04:37:00;-3276.10;98.70
48208;DHT22;33997;53.278;9.708;2023-03-11T04:39:25;-3276.10;98.60
48208;DHT22;33997;53.278;9.708;2023-03-11T04:41:51;-3276.10;98.70
48208;DHT22;33997;53.278;9.708;2023-03-11T04:44:16;-3276.20;98.70
48208;DHT22;33997;53.278;9.708;2023-03-11T04:46:42;-3276.20;98.60
48208;DHT22;33997;53.278;9.708;2023-03-11T04:49:07;-3276.20;98.60
48208;DHT22;33997;53.278;9.708;2023-03-11T04:51:33;-3276.20;98.50
48208;DHT22;33997;53.278;9.708;2023-03-11T04:53:59;-3276.10;98.50
48208;DHT22;33997;53.278;9.708;2023-03-11T04:56:24;-3276.20;98.20
48208;DHT22;33997;53.278;9.708;2023-03-11T04:58:49;-3276.10;98.20
48208;DHT22;33997;53.278;9.708;2023-03-11T05:01:15;-3276.00;98.10
48208;DHT22;33997;53.278;9.708;2023-03-11T05:03:40;-3276.00;98.10
48208;DHT22;33997;53.278;9.708;2023-03-11T05:06:06;-3276.00;98.20
48208;DHT22;33997;53.278;9.708;2023-03-11T05:08:31;-3276.00;98.30
48208;DHT22;33997;53.278;9.708;2023-03-11T05:10:57;-3276.00;98.30
48208;DHT22;33997;53.278;9.708;2023-03-11T05:13:22;-3276.00;98.40
48208;DHT22;33997;53.278;9.708;2023-03-11T05:15:48;-3276.00;98.50
48208;DHT22;33997;53.278;9.708;2023-03-11T05:18:14;-3276.10;98.50
48208;DHT22;33997;53.278;9.708;2023-03-11T05:20:40;-3276.10;98.60
48208;DHT22;33997;53.278;9.708;2023-03-11T05:23:05;-3276.10;98.60
48208;DHT22;33997;53.278;9.708;2023-03-11T05:25:31;-3276.10;98.70
48208;DHT22;33997;53.278;9.708;2023-03-11T05:27:56;-3276.20;98.70
48208;DHT22;33997;53.278;9.708;2023-03-11T05:30:22;-3276.20;98.80
48208;DHT22;33997;53.278;9.708;2023-03-11T05:32:48;-3276.20;98.80
48208;DHT22;33997;53.278;9.708;2023-03-11T05:35:13;-3276.20;98.80
48208;DHT22;33997;53.278;9.708;2023-03-11T05:37:39;-3276.20;98.90
48208;DHT22;33997;53.278;9.708;2023-03-11T05:40:06;-3276.20;98.80
48208;DHT22;33997;53.278;9.708;2023-03-11T05:42:32;-3276.20;98.80
48208;DHT22;33997;53.278;9.708;2023-03-11T05:44:58;-3276.20;98.70
48208;DHT22;33997;53.278;9.708;2023-03-11T05:47:23;-3276.30;98.70
48208;DHT22;33997;53.278;9.708;2023-03-11T05:49:49;-3276.30;98.70
48208;DHT22;33997;53.278;9.708;2023-03-11T05:52:14;-3276.20;98.60
48208;DHT22;33997;53.278;9.708;2023-03-11T05:54:40;-3276.30;98.60
48208;DHT22;33997;53.278;9.708;2023-03-11T05:57:06;-3276.30;98.60
48208;DHT22;33997;53.278;9.708;2023-03-11T05:59:31;-3276.30;98.60
48208;DHT22;33997;53.278;9.708;2023-03-11T06:01:57;-3276.20;98.60
48208;DHT22;33997;53.278;9.708;2023-03-11T06:04:23;-3276.30;98.60
48208;DHT22;33997;53.278;9.708;2023-03-11T06:06:48;-3276.30;98.60
48208;DHT22;33997;53.278;9.708;2023-03-11T06:09:14;-3276.30;98.50
48208;DHT22;33997;53.278;9.708;2023-03-11T06:11:41;-3276.30;98.50
48208;DHT22;33997;53.278;9.708;2023-03-11T06:14:09;-3276.30;98.50
48208;DHT22;33997;53.278;9.708;2023-03-11T06:16:35;-3276.30;98.50
48208;DHT22;33997;53.278;9.708;2023-03-11T06:19:01;-3276.30;98.30
48208;DHT22;33997;53.278;9.708;2023-03-11T06:21:26;-3276.30;98.10
48208;DHT22;33997;53.278;9.708;2023-03-11T06:23:53;-3276.20;98.10
48208;DHT22;33997;53.278;9.708;2023-03-11T06:26:20;-3276.10;98.00
48208;DHT22;33997;53.278;9.708;2023-03-11T06:28:46;-3276.00;98.10
48208;DHT22;33997;53.278;9.708;2023-03-11T06:31:17;-3276.00;98.10
48208;DHT22;33997;53.278;9.708;2023-03-11T06:33:44;-3276.00;98.10
48208;DHT22;33997;53.278;9.708;2023-03-11T06:36:12;-3276.00;98.10
48208;DHT22;33997;53.278;9.708;2023-03-11T06:38:38;-3276.00;98.10
48208;DHT22;33997;53.278;9.708;2023-03-11T06:41:05;-3275.90;98.00
48208;DHT22;33997;53.278;9.708;2023-03-11T06:43:32;-3275.80;98.00
48208;DHT22;33997;53.278;9.708;2023-03-11T06:45:57;-3275.80;98.10
48208;DHT22;33997;53.278;9.708;2023-03-11T06:48:23;-3275.70;98.10
48208;DHT22;33997;53.278;9.708;2023-03-11T06:50:54;-3275.70;98.20
48208;DHT22;33997;53.278;9.708;2023-03-11T06:53:19;-3275.70;98.10
48208;DHT22;33997;53.278;9.708;2023-03-11T06:55:45;-3275.80;98.10
48208;DHT22;33997;53.278;9.708;2023-03-11T06:58:10;-3275.80;98.10
48208;DHT22;33997;53.278;9.708;2023-03-11T07:00:36;-3275.80;98.10
48208;DHT22;33997;53.278;9.708;2023-03-11T07:03:01;-3275.90;98.00
48208;DHT22;33997;53.278;9.708;2023-03-11T07:05:27;-3275.90;97.90
48208;DHT22;33997;53.278;9.708;2023-03-11T07:07:53;-3275.90;97.90
48208;DHT22;33997;53.278;9.708;2023-03-11T07:10:20;-3275.90;97.90
48208;DHT22;33997;53.278;9.708;2023-03-11T07:12:45;-3275.90;97.80
48208;DHT22;33997;53.278;9.708;2023-03-11T07:17:44;-3275.90;97.70
48208;DHT22;33997;53.278;9.708;2023-03-11T07:20:10;-3276.00;97.60
48208;DHT22;33997;53.278;9.708;2023-03-11T07:22:36;-3276.00;97.50
48208;DHT22;33997;53.278;9.708;2023-03-11T07:25:01;-3276.10;97.50
48208;DHT22;33997;53.278;9.708;2023-03-11T07:27:27;-3276.10;97.40
48208;DHT22;33997;53.278;9.708;2023-03-11T07:29:53;-3276.10;97.40
48208;DHT22;33997;53.278;9.708;2023-03-11T07:32:18;-3276.20;97.20
48208;DHT22;33997;53.278;9.708;2023-03-11T07:34:44;-3276.30;97.20
48208;DHT22;33997;53.278;9.708;2023-03-11T07:37:09;-3276.40;97.20
48208;DHT22;33997;53.278;9.708;2023-03-11T07:39:35;-3276.40;97.20
48208;DHT22;33997;53.278;9.708;2023-03-11T07:42:00;-3276.50;97.00
48208;DHT22;33997;53.278;9.708;2023-03-11T07:44:26;-3276.50;97.10
48208;DHT22;33997;53.278;9.708;2023-03-11T07:46:51;-3276.60;97.00
48208;DHT22;33997;53.278;9.708;2023-03-11T07:49:17;-3276.60;97.00
48208;DHT22;33997;53.278;9.708;2023-03-11T07:51:42;-3276.60;96.90
48208;DHT22;33997;53.278;9.708;2023-03-11T07:54:10;-3276.70;97.00
48208;DHT22;33997;53.278;9.708;2023-03-11T07:56:36;0.00;97.00
48208;DHT22;33997;53.278;9.708;2023-03-11T07:59:03;0.00;97.10
48208;DHT22;33997;53.278;9.708;2023-03-11T08:01:30;0.00;97.00
48208;DHT22;33997;53.278;9.708;2023-03-11T08:04:02;0.00;96.80
48208;DHT22;33997;53.278;9.708;2023-03-11T08:06:30;0.10;96.90
48208;DHT22;33997;53.278;9.708;2023-03-11T08:08:57;0.10;96.80
48208;DHT22;33997;53.278;9.708;2023-03-11T08:11:23;0.10;96.90
48208;DHT22;33997;53.278;9.708;2023-03-11T08:13:49;0.30;96.80
48208;DHT22;33997;53.278;9.708;2023-03-11T08:16:17;0.40;96.70
48208;DHT22;33997;53.278;9.708;2023-03-11T08:18:45;0.40;96.40
48208;DHT22;33997;53.278;9.708;2023-03-11T08:21:12;0.50;96.20
48208;DHT22;33997;53.278;9.708;2023-03-11T08:23:41;0.70;96.40
48208;DHT22;33997;53.278;9.708;2023-03-11T08:26:14;0.60;95.80
48208;DHT22;33997;53.278;9.708;2023-03-11T08:28:40;0.90;95.80
48208;DHT22;33997;53.278;9.708;2023-03-11T08:33:39;1.10;95.10
48208;DHT22;33997;53.278;9.708;2023-03-11T08:36:04;1.20;94.60
48208;DHT22;33997;53.278;9.708;2023-03-11T08:38:30;1.30;94.40
48208;DHT22;33997;53.278;9.708;2023-03-11T08:40:55;1.40;93.70
48208;DHT22;33997;53.278;9.708;2023-03-11T08:43:21;1.60;93.50
48208;DHT22;33997;53.278;9.708;2023-03-11T08:45:46;1.50;92.90
48208;DHT22;33997;53.278;9.708;2023-03-11T08:48:12;1.30;92.30
48208;DHT22;33997;53.278;9.708;2023-03-11T08:50:41;1.70;93.00
48208;DHT22;33997;53.278;9.708;2023-03-11T08:53:07;1.70;92.30
48208;DHT22;33997;53.278;9.708;2023-03-11T08:55:33;1.70;91.60
48208;DHT22;33997;53.278;9.708;2023-03-11T08:57:59;1.70;91.70
48208;DHT22;33997;53.278;9.708;2023-03-11T09:00:25;1.80;91.80
48208;DHT22;33997;53.278;9.708;2023-03-11T09:02:50;2.00;91.60
48208;DHT22;33997;53.278;9.708;2023-03-11T09:05:16;1.90;90.60
48208;DHT22;33997;53.278;9.708;2023-03-11T09:07:42;1.80;90.40
48208;DHT22;33997;53.278;9.708;2023-03-11T09:10:07;1.70;90.00
48208;DHT22;33997;53.278;9.708;2023-03-11T09:12:33;1.80;90.30
48208;DHT22;33997;53.278;9.708;2023-03-11T09:14:59;2.00;90.00
48208;DHT22;33997;53.278;9.708;2023-03-11T09:17:24;2.10;89.80
48208;DHT22;33997;53.278;9.708;2023-03-11T09:19:50;2.10;88.70
48208;DHT22;33997;53.278;9.708;2023-03-11T09:22:15;2.40;90.40
48208;DHT22;33997;53.278;9.708;2023-03-11T09:24:41;2.60;89.50
48208;DHT22;33997;53.278;9.708;2023-03-11T09:27:06;2.60;88.50
48208;DHT22;33997;53.278;9.708;2023-03-11T09:29:32;2.70;87.40
48208;DHT22;33997;53.278;9.708;2023-03-11T09:31:58;3.10;89.00
48208;DHT22;33997;53.278;9.708;2023-03-11T09:34:23;2.90;88.60
48208;DHT22;33997;53.278;9.708;2023-03-11T09:36:49;2.90;88.60
48208;DHT22;33997;53.278;9.708;2023-03-11T09:39:14;3.10;89.30
48208;DHT22;33997;53.278;9.708;2023-03-11T09:44:36;3.00;88.40
48208;DHT22;33997;53.278;9.708;2023-03-11T09:49:45;2.90;87.40
48208;DHT22;33997;53.278;9.708;2023-03-11T09:52:15;3.10;87.90
48208;DHT22;33997;53.278;9.708;2023-03-11T09:54:47;3.10;87.10
48208;DHT22;33997;53.278;9.708;2023-03-11T09:57:20;3.30;87.80
48208;DHT22;33997;53.278;9.708;2023-03-11T09:59:47;3.30;87.40
48208;DHT22;33997;53.278;9.708;2023-03-11T10:02:21;3.40;87.00
48208;DHT22;33997;53.278;9.708;2023-03-11T10:04:57;3.30;87.20
48208;DHT22;33997;53.278;9.708;2023-03-11T10:07:34;3.10;86.60
48208;DHT22;33997;53.278;9.708;2023-03-11T10:10:04;3.20;86.30
48208;DHT22;33997;53.278;9.708;2023-03-11T10:17:56;3.70;85.00
48208;DHT22;33997;53.278;9.708;2023-03-11T10:20:25;3.60;85.30
48208;DHT22;33997;53.278;9.708;2023-03-11T10:28:37;4.10;85.30
48208;DHT22;33997;53.278;9.708;2023-03-11T10:31:34;4.20;83.00
48208;DHT22;33997;53.278;9.708;2023-03-11T10:36:39;4.70;81.10
48208;DHT22;33997;53.278;9.708;2023-03-11T10:39:09;4.70;81.80
48208;DHT22;33997;53.278;9.708;2023-03-11T10:41:39;5.10;81.30
48208;DHT22;33997;53.278;9.708;2023-03-11T10:44:12;4.90;80.30
48208;DHT22;33997;53.278;9.708;2023-03-11T10:46:39;5.00;79.30
48208;DHT22;33997;53.278;9.708;2023-03-11T10:49:15;4.90;80.20
48208;DHT22;33997;53.278;9.708;2023-03-11T10:51:44;5.10;80.10
48208;DHT22;33997;53.278;9.708;2023-03-11T10:54:28;4.90;78.50
48208;DHT22;33997;53.278;9.708;2023-03-11T10:56:59;5.30;78.60
48208;DHT22;33997;53.278;9.708;2023-03-11T10:59:37;5.30;77.70
48208;DHT22;33997;53.278;9.708;2023-03-11T11:02:24;5.30;78.70
48208;DHT22;33997;53.278;9.708;2023-03-11T11:07:44;5.30;76.60
48208;DHT22;33997;53.278;9.708;2023-03-11T11:10:19;5.50;76.50
48208;DHT22;33997;53.278;9.708;2023-03-11T11:12:58;5.40;76.20
48208;DHT22;33997;53.278;9.708;2023-03-11T11:15:35;5.90;76.50
48208;DHT22;33997;53.278;9.708;2023-03-11T11:18:45;5.90;75.80
48208;DHT22;33997;53.278;9.708;2023-03-11T11:23:40;5.80;74.80
48208;DHT22;33997;53.278;9.708;2023-03-11T11:26:15;6.00;75.50
48208;DHT22;33997;53.278;9.708;2023-03-11T11:28:41;5.90;74.80
48208;DHT22;33997;53.278;9.708;2023-03-11T11:31:23;5.80;73.40
48208;DHT22;33997;53.278;9.708;2023-03-11T11:33:54;6.20;73.90
48208;DHT22;33997;53.278;9.708;2023-03-11T11:36:21;6.10;71.80
48208;DHT22;33997;53.278;9.708;2023-03-11T11:38:50;6.40;74.90
48208;DHT22;33997;53.278;9.708;2023-03-11T11:41:20;6.40;72.10
48208;DHT22;33997;53.278;9.708;2023-03-11T11:43:55;6.10;72.60
48208;DHT22;33997;53.278;9.708;2023-03-11T11:46:24;6.40;72.90
48208;DHT22;33997;53.278;9.708;2023-03-11T11:51:46;6.30;71.80
48208;DHT22;33997;53.278;9.708;2023-03-11T11:54:39;6.10;72.30
48208;DHT22;33997;53.278;9.708;2023-03-11T11:57:12;6.50;71.60
48208;DHT22;33997;53.278;9.708;2023-03-11T11:59:38;6.30;71.80
48208;DHT22;33997;53.278;9.708;2023-03-11T12:05:16;6.70;71.20
48208;DHT22;33997;53.278;9.708;2023-03-11T12:08:00;6.20;71.60
48208;DHT22;33997;53.278;9.708;2023-03-11T12:10:43;7.10;71.00
48208;DHT22;33997;53.278;9.708;2023-03-11T12:16:02;6.60;70.10
48208;DHT22;33997;53.278;9.708;2023-03-11T12:18:37;6.60;69.10
48208;DHT22;33997;53.278;9.708;2023-03-11T12:21:20;6.60;71.30
48208;DHT22;33997;53.278;9.708;2023-03-11T12:24:06;7.00;68.00
48208;DHT22;33997;53.278;9.708;2023-03-11T12:26:37;6.30;70.60
48208;DHT22;33997;53.278;9.708;2023-03-11T12:31:47;6.80;69.40
48208;DHT22;33997;53.278;9.708;2023-03-11T12:34:15;7.10;68.80
48208;DHT22;33997;53.278;9.708;2023-03-11T12:36:45;6.80;67.90
48208;DHT22;33997;53.278;9.708;2023-03-11T12:39:27;6.80;68.70
48208;DHT22;33997;53.278;9.708;2023-03-11T12:44:39;7.00;69.60
48208;DHT22;33997;53.278;9.708;2023-03-11T12:54:38;7.50;65.80
48208;DHT22;33997;53.278;9.708;2023-03-11T12:57:33;7.10;67.80
48208;DHT22;33997;53.278;9.708;2023-03-11T13:00:21;7.70;67.20
48208;DHT22;33997;53.278;9.708;2023-03-11T13:07:59;8.10;66.10
48208;DHT22;33997;53.278;9.708;2023-03-11T13:10:46;8.10;64.60
48208;DHT22;33997;53.278;9.708;2023-03-11T13:15:53;7.50;65.20
48208;DHT22;33997;53.278;9.708;2023-03-11T13:18:28;7.20;65.90
48208;DHT22;33997;53.278;9.708;2023-03-11T13:23:32;7.60;65.20
48208;DHT22;33997;53.278;9.708;2023-03-11T13:28:34;8.10;64.70
48208;DHT22;33997;53.278;9.708;2023-03-11T13:31:49;7.50;66.70
48208;DHT22;33997;53.278;9.708;2023-03-11T13:37:34;8.10;64.60
48208;DHT22;33997;53.278;9.708;2023-03-11T13:42:51;7.80;64.00
48208;DHT22;33997;53.278;9.708;2023-03-11T13:45:29;7.60;64.50
48208;DHT22;33997;53.278;9.708;2023-03-11T13:48:10;7.40;64.80
48208;DHT22;33997;53.278;9.708;2023-03-11T13:53:42;7.70;64.10
48208;DHT22;33997;53.278;9.708;2023-03-11T13:56:25;7.40;65.10
48208;DHT22;33997;53.278;9.708;2023-03-11T13:58:51;7.20;65.70
48208;DHT22;33997;53.278;9.708;2023-03-11T14:01:17;7.60;64.60
48208;DHT22;33997;53.278;9.708;2023-03-11T14:03:44;7.90;64.20
48208;DHT22;33997;53.278;9.708;2023-03-11T14:06:18;8.20;62.30
48208;DHT22;33997;53.278;9.708;2023-03-11T14:08:55;8.50;64.40
48208;DHT22;33997;53.278;9.708;2023-03-11T14:11:25;8.10;63.30
48208;DHT22;33997;53.278;9.708;2023-03-11T14:13:51;8.30;62.00
48208;DHT22;33997;53.278;9.708;2023-03-11T14:16:31;7.80;62.60
48208;DHT22;33997;53.278;9.708;2023-03-11T14:19:03;7.90;63.90
48208;DHT22;33997;53.278;9.708;2023-03-11T14:21:29;7.80;62.30
48208;DHT22;33997;53.278;9.708;2023-03-11T14:23:56;7.30;62.70
48208;DHT22;33997;53.278;9.708;2023-03-11T14:26:33;7.40;64.50
48208;DHT22;33997;53.278;9.708;2023-03-11T14:29:09;7.30;64.00
48208;DHT22;33997;53.278;9.708;2023-03-11T14:31:39;7.60;63.40
48208;DHT22;33997;53.278;9.708;2023-03-11T14:34:15;7.60;65.40
48208;DHT22;33997;53.278;9.708;2023-03-11T14:36:50;7.00;66.00
48208;DHT22;33997;53.278;9.708;2023-03-11T14:39:37;6.30;67.10
48208;DHT22;33997;53.278;9.708;2023-03-11T14:45:14;5.80;69.10
48208;DHT22;33997;53.278;9.708;2023-03-11T14:50:36;5.50;69.90
48208;DHT22;33997;53.278;9.708;2023-03-11T14:55:58;6.00;70.30
48208;DHT22;33997;53.278;9.708;2023-03-11T14:58:39;5.80;69.20
48208;DHT22;33997;53.278;9.708;2023-03-11T15:01:27;5.40;70.70
48208;DHT22;33997;53.278;9.708;2023-03-11T15:04:04;5.00;71.10
48208;DHT22;33997;53.278;9.708;2023-03-11T15:06:34;4.70;72.50
48208;DHT22;33997;53.278;9.708;2023-03-11T15:09:11;4.70;73.10
48208;DHT22;33997;53.278;9.708;2023-03-11T15:11:45;5.40;71.40
48208;DHT22;33997;53.278;9.708;2023-03-11T15:14:26;6.10;68.30
48208;DHT22;33997;53.278;9.708;2023-03-11T15:16:53;6.70;66.40
48208;DHT22;33997;53.278;9.708;2023-03-11T15:21:49;7.10;64.50
48208;DHT22;33997;53.278;9.708;2023-03-11T15:24:20;6.40;65.40
48208;DHT22;33997;53.278;9.708;2023-03-11T15:26:59;5.60;68.50
48208;DHT22;33997;53.278;9.708;2023-03-11T15:29:26;5.70;68.80
48208;DHT22;33997;53.278;9.708;2023-03-11T15:31:52;5.60;68.50
48208;DHT22;33997;53.278;9.708;2023-03-11T15:37:05;6.10;67.80
48208;DHT22;33997;53.278;9.708;2023-03-11T15:39:42;6.30;66.20
48208;DHT22;33997;53.278;9.708;2023-03-11T15:42:19;6.80;65.60
48208;DHT22;33997;53.278;9.708;2023-03-11T15:47:29;6.40;65.50
48208;DHT22;33997;53.278;9.708;2023-03-11T15:52:38;5.60;69.30
48208;DHT22;33997;53.278;9.708;2023-03-11T15:55:04;5.10;70.70
48208;DHT22;33997;53.278;9.708;2023-03-11T15:57:30;4.70;72.70
48208;DHT22;33997;53.278;9.708;2023-03-11T15:59:57;4.30;73.30
48208;DHT22;33997;53.278;9.708;2023-03-11T16:02:28;4.10;74.10
48208;DHT22;33997;53.278;9.708;2023-03-11T16:04:55;4.00;75.20
48208;DHT22;33997;53.278;9.708;2023-03-11T16:07:21;3.80;75.50
48208;DHT22;33997;53.278;9.708;2023-03-11T16:09:46;3.70;75.90
48208;DHT22;33997;53.278;9.708;2023-03-11T16:12:18;3.70;76.70
48208;DHT22;33997;53.278;9.708;2023-03-11T16:14:45;3.60;76.90
48208;DHT22;33997;53.278;9.708;2023-03-11T16:17:12;3.60;76.80
48208;DHT22;33997;53.278;9.708;2023-03-11T16:19:48;3.50;77.60
48208;DHT22;33997;53.278;9.708;2023-03-11T16:22:19;3.50;77.90
48208;DHT22;33997;53.278;9.708;2023-03-11T16:24:47;3.50;77.40
48208;DHT22;33997;53.278;9.708;2023-03-11T16:27:15;3.50;77.60
48208;DHT22;33997;53.278;9.708;2023-03-11T16:29:42;3.50;78.10
48208;DHT22;33997;53.278;9.708;2023-03-11T16:32:08;3.40;78.50
48208;DHT22;33997;53.278;9.708;2023-03-11T16:34:35;3.30;79.00
48208;DHT22;33997;53.278;9.708;2023-03-11T16:37:01;3.20;79.80
48208;DHT22;33997;53.278;9.708;2023-03-11T16:39:27;3.20;79.50
48208;DHT22;33997;53.278;9.708;2023-03-11T16:41:52;3.10;79.90
48208;DHT22;33997;53.278;9.708;2023-03-11T16:44:18;3.10;79.70
48208;DHT22;33997;53.278;9.708;2023-03-11T16:46:43;3.10;80.40
48208;DHT22;33997;53.278;9.708;2023-03-11T16:49:09;3.10;80.50
48208;DHT22;33997;53.278;9.708;2023-03-11T16:51:34;3.10;81.10
48208;DHT22;33997;53.278;9.708;2023-03-11T16:54:00;2.70;85.20
48208;DHT22;33997;53.278;9.708;2023-03-11T16:56:25;2.30;88.10
48208;DHT22;33997;53.278;9.708;2023-03-11T16:58:51;2.10;89.90
48208;DHT22;33997;53.278;9.708;2023-03-11T17:01:17;2.00;91.00
48208;DHT22;33997;53.278;9.708;2023-03-11T17:03:43;1.90;91.40
48208;DHT22;33997;53.278;9.708;2023-03-11T17:06:12;1.80;92.00